Time;durP1;ratioP1;P1;durP2;ratioP2;P2;SDS_P1;SDS_P2;PMS_P1;PMS_P2;Temp;Humidity;BMP_temperature;BMP_pressure;BME280_temperature;BME280_humidity;BME280_pressure;Samples;Min_cycle;Max_cycle;Signal;HPM_P1;HPM_P2
2022/07/19 00:00:18;;;;;;;1.77;1.67;;;;;;;21.16;70.96;100056.72;5093593;28;20255;-56
2022/07/19 00:02:45;;;;;;;5.40;1.60;;;;;;;20.95;71.16;100064.22;5093491;28;20214;-56
2022/07/19 00:05:13;;;;;;;1.63;1.50;;;;;;;20.88;71.34;100057.66;5093894;28;20199;-56
2022/07/19 00:07:42;;;;;;;3.05;1.60;;;;;;;20.89;71.18;100061.94;5093711;28;20592;-56
2022/07/19 00:10:11;;;;;;;1.70;1.13;;;;;;;20.77;71.07;100068.84;5093428;28;20191;-56
2022/07/19 00:12:39;;;;;;;2.72;1.50;;;;;;;20.72;71.29;100068.28;5093592;28;20651;-56
2022/07/19 00:15:08;;;;;;;1.70;1.60;;;;;;;20.72;71.21;100059.53;5094558;28;20202;-56
2022/07/19 00:17:35;;;;;;;2.47;2.00;;;;;;;20.59;71.16;100064.72;5110033;28;20285;-56
2022/07/19 00:20:02;;;;;;;1.42;1.33;;;;;;;20.54;71.46;100064.16;5113811;28;20218;-56
2022/07/19 00:22:29;;;;;;;1.75;1.63;;;;;;;20.59;70.98;100062.91;5113863;28;20635;-56
2022/07/19 00:24:58;;;;;;;2.50;1.75;;;;;;;20.50;71.35;100062.63;5113626;28;20197;-56
2022/07/19 00:27:25;;;;;;;2.10;1.45;;;;;;;20.41;72.01;100058.78;5113463;28;20294;-55
2022/07/19 00:29:51;;;;;;;2.75;1.77;;;;;;;20.45;71.93;100054.16;5113644;28;20190;-56
2022/07/19 00:32:18;;;;;;;5.68;1.67;;;;;;;20.47;72.17;100057.53;5113565;28;20285;-56
2022/07/19 00:34:45;;;;;;;3.35;1.67;;;;;;;20.52;nan;100052.84;5113330;28;20199;-56
2022/07/19 00:37:12;;;;;;;1.92;1.83;;;;;;;20.47;72.02;100058.41;5113046;28;20198;-57
2022/07/19 00:39:39;;;;;;;2.47;1.42;;;;;;;20.51;71.85;100056.44;5112948;28;20223;-56
2022/07/19 00:42:07;;;;;;;2.95;1.63;;;;;;;20.47;71.62;100052.28;5113261;28;20187;-56
2022/07/19 00:44:34;;;;;;;3.80;1.80;;;;;;;20.41;71.97;100052.66;5113404;28;20618;-57
2022/07/19 00:47:03;;;;;;;2.10;1.58;;;;;;;20.40;72.15;100046.53;5113477;28;20222;-57
2022/07/19 00:49:30;;;;;;;1.73;1.63;;;;;;;20.48;71.50;100049.53;5113247;28;20221;-57
2022/07/19 00:51:58;;;;;;;1.95;1.40;;;;;;;20.45;71.20;100039.19;5112965;28;20197;-56
2022/07/19 00:54:27;;;;;;;1.50;1.45;;;;;;;20.50;71.88;100057.38;5113103;28;20281;-57
2022/07/19 00:56:54;;;;;;;2.05;1.70;;;;;;;20.45;70.71;100038.31;5113085;28;20197;-56
2022/07/19 00:59:23;;;;;;;3.38;1.50;;;;;;;20.50;71.12;100049.47;5113317;28;20225;-56
2022/07/19 01:01:50;;;;;;;2.10;1.58;;;;;;;20.56;70.90;100051.69;5112896;28;20208;-55
2022/07/19 01:04:19;;;;;;;2.53;1.50;;;;;;;20.44;71.24;100044.53;5112924;28;20195;-59
2022/07/19 01:06:46;;;;;;;1.98;1.70;;;;;;;20.41;71.74;100047.38;5112841;28;20223;-59
2022/07/19 01:09:13;;;;;;;1.70;1.60;;;;;;;20.37;71.53;100051.97;5112225;28;20206;-59
2022/07/19 01:11:40;;;;;;;1.67;1.58;;;;;;;20.39;71.33;100049.25;5112327;28;20201;-59
2022/07/19 01:14:07;;;;;;;3.70;1.33;;;;;;;20.15;71.67;100015.50;5112895;28;20193;-59
2022/07/19 01:16:36;;;;;;;3.05;1.70;;;;;;;20.27;71.89;100046.38;5112742;28;20205;-59
2022/07/19 01:19:06;;;;;;;3.72;1.67;;;;;;;20.25;71.86;100043.00;5113014;28;20198;-59
2022/07/19 01:21:35;;;;;;;4.30;1.73;;;;;;;20.28;72.00;100039.34;5112889;28;20241;-59
2022/07/19 01:24:01;;;;;;;2.75;1.45;;;;;;;20.34;71.98;100035.47;5112537;28;20195;-58
2022/07/19 01:26:29;;;;;;;2.33;1.70;;;;;;;20.25;72.49;100036.88;5112549;28;20302;-59
2022/07/19 01:28:56;;;;;;;1.50;1.42;;;;;;;20.15;72.94;100044.50;5112399;28;20311;-59
2022/07/19 01:31:23;;;;;;;4.30;1.55;;;;;;;20.17;73.00;100042.63;5112130;28;20220;-59
2022/07/19 01:33:50;;;;;;;2.78;1.40;;;;;;;20.32;72.45;100032.91;5112301;28;20195;-58
2022/07/19 01:36:17;;;;;;;1.55;1.42;;;;;;;20.40;71.93;100035.13;5112479;28;20290;-59
2022/07/19 01:38:45;;;;;;;2.60;1.45;;;;;;;20.37;72.02;100040.59;5112135;28;20203;-56
2022/07/19 01:41:12;;;;;;;1.40;1.30;;;;;;;20.46;72.13;100035.59;5112023;28;20222;-56
2022/07/19 01:43:39;;;;;;;1.60;1.50;;;;;;;20.43;71.70;100038.41;5111953;28;20203;-56
2022/07/19 01:46:07;;;;;;;2.08;1.58;;;;;;;20.53;71.51;100042.22;5111984;28;20205;-56
2022/07/19 01:48:34;;;;;;;1.52;1.40;;;;;;;20.51;71.31;100037.97;5111823;28;20280;-55
2022/07/19 01:51:01;;;;;;;3.90;1.60;;;;;;;20.48;71.33;100039.00;5112036;28;20203;-58
2022/07/19 01:53:28;;;;;;;3.28;1.50;;;;;;;20.40;71.63;100041.25;5111932;28;20194;-58
2022/07/19 01:55:56;;;;;;;1.50;1.40;;;;;;;20.39;71.78;100038.72;5111823;28;20209;-58
2022/07/19 01:58:23;;;;;;;5.22;1.40;;;;;;;20.43;71.60;100042.88;5111749;28;20195;-59
2022/07/19 02:00:51;;;;;;;2.25;1.70;;;;;;;20.43;71.59;100041.06;5111625;28;20220;-59
2022/07/19 02:03:18;;;;;;;1.95;1.55;;;;;;;20.48;71.54;100038.16;5111850;28;20202;-58
2022/07/19 02:05:45;;;;;;;2.38;1.38;;;;;;;20.43;71.58;100045.50;5111714;28;20199;-60
2022/07/19 02:08:13;;;;;;;3.30;1.70;;;;;;;20.33;72.09;100057.50;5111825;28;20195;-59
2022/07/19 02:10:40;;;;;;;1.58;1.48;;;;;;;20.31;72.30;100054.97;5111948;28;20197;-60
2022/07/19 02:13:08;;;;;;;4.65;1.60;;;;;;;20.30;72.35;100051.50;5111422;28;20199;-60
2022/07/19 02:15:35;;;;;;;3.97;1.48;;;;;;;20.36;72.00;100052.06;5111459;28;20703;-60
2022/07/19 02:18:02;;;;;;;2.30;1.30;;;;;;;20.28;72.60;100055.16;5111498;28;20194;-59
2022/07/19 02:20:29;;;;;;;1.67;1.58;;;;;;;20.26;72.45;100052.59;5111199;28;20222;-58
2022/07/19 02:22:56;;;;;;;1.83;1.20;;;;;;;20.23;72.85;100055.41;5110765;28;20289;-58
2022/07/19 02:25:23;;;;;;;5.05;1.55;;;;;;;20.23;72.72;100060.69;5111393;28;20708;-58
2022/07/19 02:27:50;;;;;;;1.52;1.27;;;;;;;20.15;73.13;100056.81;5111178;28;20207;-58
2022/07/19 02:30:18;;;;;;;1.40;1.30;;;;;;;20.16;73.74;100067.28;5111272;28;20195;-59
2022/07/19 02:32:46;;;;;;;1.45;1.40;;;;;;;20.21;73.47;100056.44;5111219;28;20197;-59
2022/07/19 02:35:13;;;;;;;4.22;1.50;;;;;;;20.14;73.78;100045.44;5111088;28;20206;-54
2022/07/19 02:37:41;;;;;;;2.95;1.80;;;;;;;20.20;75.07;100058.22;5111192;28;20187;-55
2022/07/19 02:40:09;;;;;;;3.30;2.10;;;;;;;20.15;76.55;100057.66;5111007;28;20722;-56
2022/07/19 02:42:36;;;;;;;2.75;2.47;;;;;;;19.99;78.00;100056.00;5110795;28;20247;-56
2022/07/19 02:45:03;;;;;;;3.58;2.60;;;;;;;19.94;78.95;100054.53;5110885;28;20202;-56
2022/07/19 02:47:32;;;;;;;6.95;2.63;;;;;;;19.78;79.97;100035.25;5110735;28;20234;-54
2022/07/19 02:49:59;;;;;;;3.05;2.75;;;;;;;19.83;80.29;100048.19;5110933;28;20595;-55
2022/07/19 02:52:25;;;;;;;2.75;2.53;;;;;;;19.78;80.83;100045.81;5110799;28;20201;-56
2022/07/19 02:54:53;;;;;;;4.38;2.45;;;;;;;19.79;80.57;100055.41;5110679;28;20194;-55
2022/07/19 02:57:19;;;;;;;3.97;2.75;;;;;;;19.91;80.20;100059.09;5083418;28;20279;-55
2022/07/19 02:59:46;;;;;;;3.20;2.90;;;;;;;19.90;80.39;100054.78;5077667;28;20188;-55
2022/07/19 03:02:13;;;;;;;3.33;2.53;;;;;;;19.83;81.19;100056.09;5081212;28;20449;-56
2022/07/19 03:04:42;;;;;;;2.72;2.53;;;;;;;19.75;81.20;100047.78;5089806;28;20229;-55
2022/07/19 03:07:08;;;;;;;3.20;2.90;;;;;;;19.71;81.10;100052.38;5088622;28;20215;-57
2022/07/19 03:09:35;;;;;;;4.28;2.55;;;;;;;19.77;81.06;100049.38;5076841;28;20238;-56
2022/07/19 03:12:03;;;;;;;3.58;2.42;;;;;;;19.89;80.16;100055.72;5078831;28;20218;-56
2022/07/19 03:14:29;;;;;;;3.60;2.78;;;;;;;19.90;80.54;100047.72;5077996;28;20220;-57
2022/07/19 03:16:56;;;;;;;4.13;2.67;;;;;;;19.86;80.93;100055.91;5077565;28;20215;-56
2022/07/19 03:19:25;;;;;;;6.18;3.03;;;;;;;19.84;81.19;100055.16;5079182;28;20223;-57
2022/07/19 03:21:53;;;;;;;5.05;2.85;;;;;;;19.81;81.31;100057.94;5078027;28;20227;-56
2022/07/19 03:24:20;;;;;;;3.60;3.20;;;;;;;19.86;81.36;100066.44;5074443;28;20226;-58
2022/07/19 03:26:47;;;;;;;2.95;2.72;;;;;;;19.86;81.77;100062.00;5069141;28;20220;-58
2022/07/19 03:29:14;;;;;;;3.38;2.80;;;;;;;19.93;81.57;100065.16;5071234;28;20306;-58
2022/07/19 03:31:41;;;;;;;8.48;3.15;;;;;;;20.13;80.78;100070.09;5071945;28;20616;-60
2022/07/19 03:34:08;;;;;;;4.80;2.78;;;;;;;20.22;80.55;100069.53;5068553;28;20203;-59
2022/07/19 03:36:35;;;;;;;5.82;3.08;;;;;;;20.36;79.21;100071.38;5071092;28;20196;-57
2022/07/19 03:39:03;;;;;;;3.60;3.20;;;;;;;20.36;78.62;100065.25;5090108;28;20201;-55
2022/07/19 03:41:30;;;;;;;5.53;2.92;;;;;;;20.41;78.38;100071.13;5089674;28;20261;-56
2022/07/19 03:43:57;;;;;;;5.50;2.83;;;;;;;20.36;78.59;100052.91;5089816;28;20192;-57
2022/07/19 03:46:25;;;;;;;5.22;3.33;;;;;;;20.54;78.11;100064.16;5087508;28;20652;-57
2022/07/19 03:48:53;;;;;;;5.65;3.45;;;;;;;20.65;77.06;100062.53;5082087;28;20224;-55
2022/07/19 03:51:20;;;;;;;6.00;3.13;;;;;;;20.88;76.12;100065.56;5089592;28;20191;-56
2022/07/19 03:53:47;;;;;;;3.15;2.95;;;;;;;21.05;75.21;100070.63;5089622;28;20195;-57
2022/07/19 03:56:17;;;;;;;3.38;3.08;;;;;;;21.16;74.72;100068.16;5088879;28;20688;-58
2022/07/19 03:58:44;;;;;;;8.63;3.22;;;;;;;21.91;71.61;100073.84;5069413;28;20200;-57
2022/07/19 04:01:11;;;;;;;5.97;3.30;;;;;;;23.30;65.18;100080.94;5071483;28;20215;-56
2022/07/19 04:03:39;;;;;;;3.70;3.40;;;;;;;24.96;58.79;100082.44;5076502;28;20195;-57
2022/07/19 04:06:06;;;;;;;4.93;4.10;;;;;;;26.27;53.43;100092.94;5074259;28;20694;-56
2022/07/19 04:08:33;;;;;;;8.18;3.80;;;;;;;28.04;48.43;100099.47;5079584;28;20292;-57
2022/07/19 04:11:00;;;;;;;8.25;5.45;;;;;;;28.68;45.67;100099.63;5078506;28;20691;-57
2022/07/19 04:13:28;;;;;;;6.78;3.40;;;;;;;29.55;43.76;100093.94;5086158;28;20201;-57
2022/07/19 04:15:55;;;;;;;9.93;6.78;;;;;;;29.96;42.01;100095.16;5089532;28;20196;-57
2022/07/19 04:18:22;;;;;;;10.05;4.93;;;;;;;30.91;40.51;100095.19;5089320;28;20210;-57
2022/07/19 04:20:49;;;;;;;6.72;3.80;;;;;;;31.88;38.28;100099.19;5089516;28;20616;-57
2022/07/19 04:23:16;;;;;;;6.28;4.07;;;;;;;31.95;37.69;100105.53;5089502;28;20195;-57
2022/07/19 04:25:43;;;;;;;8.90;3.50;;;;;;;32.54;36.98;100101.69;5089286;28;20286;-58
2022/07/19 04:28:10;;;;;;;4.63;4.20;;;;;;;32.58;35.99;100102.19;5089376;28;20234;-57
2022/07/19 04:30:38;;;;;;;8.05;3.88;;;;;;;32.76;35.52;100105.50;5089717;28;20197;-58
2022/07/19 04:33:05;;;;;;;6.38;3.42;;;;;;;33.76;34.17;100110.13;5089461;28;20217;-58
2022/07/19 04:35:32;;;;;;;7.03;3.78;;;;;;;34.54;33.12;100115.19;5089135;28;20282;-57
2022/07/19 04:37:59;;;;;;;3.30;2.95;;;;;;;34.24;32.49;100111.59;5089494;28;20807;-57
2022/07/19 04:40:26;;;;;;;9.60;3.97;;;;;;;34.01;32.96;100108.09;5089125;28;25128;-56
2022/07/19 04:42:53;;;;;;;6.38;3.35;;;;;;;34.56;32.25;100104.22;5089034;28;25051;-57
2022/07/19 04:45:20;;;;;;;3.45;3.20;;;;;;;35.23;31.96;100114.94;5091194;28;20592;-56
2022/07/19 04:47:48;;;;;;;3.72;3.42;;;;;;;35.84;30.44;100116.31;5092884;28;20237;-58
2022/07/19 04:50:15;;;;;;;10.52;4.05;;;;;;;36.08;30.24;100125.88;5092908;28;20676;-57
2022/07/19 04:52:42;;;;;;;9.55;4.22;;;;;;;36.56;29.58;100121.53;5092684;28;20206;-57
2022/07/19 04:55:09;;;;;;;4.07;3.65;;;;;;;37.13;29.22;100122.28;5091637;28;20195;-57
2022/07/19 04:57:36;;;;;;;8.13;3.78;;;;;;;37.18;28.83;100127.97;5074661;28;20196;-57
2022/07/19 05:00:04;;;;;;;4.68;3.75;;;;;;;37.04;28.71;100117.03;5072330;28;20206;-57
2022/07/19 05:02:31;;;;;;;3.65;3.33;;;;;;;37.38;28.17;100118.03;5072205;28;20235;-58
2022/07/19 05:04:59;;;;;;;6.30;3.30;;;;;;;37.50;27.91;100126.41;5072671;28;20666;-57
2022/07/19 05:07:26;;;;;;;9.27;3.85;;;;;;;37.98;27.27;100121.75;5072261;28;20202;-57
2022/07/19 05:09:53;;;;;;;4.85;3.15;;;;;;;38.64;26.57;100130.75;5072156;28;20197;-56
2022/07/19 05:12:20;;;;;;;3.75;3.35;;;;;;;38.91;26.49;100131.53;5077286;28;20195;-56
2022/07/19 05:14:47;;;;;;;8.95;3.75;;;;;;;38.25;26.63;100130.75;5074087;28;20218;-56
2022/07/19 05:17:14;;;;;;;4.88;3.42;;;;;;;37.75;27.32;100128.38;5072054;28;20203;-56
2022/07/19 05:19:41;;;;;;;4.25;3.10;;;;;;;38.56;26.28;100130.97;5071933;28;20191;-56
2022/07/19 05:22:09;;;;;;;9.00;3.50;;;;;;;38.73;26.41;100129.47;5071887;28;20229;-56
2022/07/19 05:24:36;;;;;;;6.38;3.10;;;;;;;38.01;26.91;100129.47;5071815;28;20195;-56
2022/07/19 05:27:03;;;;;;;9.15;3.45;;;;;;;38.41;26.48;100127.59;5071721;28;20217;-57
2022/07/19 05:29:30;;;;;;;7.40;2.90;;;;;;;38.63;25.78;100129.06;5071930;28;20192;-57
2022/07/19 05:31:57;;;;;;;15.93;3.47;;;;;;;39.26;25.28;100126.63;5071684;28;20187;-57
2022/07/19 05:34:24;;;;;;;45.55;5.40;;;;;;;38.50;26.28;100131.78;5072009;28;20200;-57
2022/07/19 05:36:51;;;;;;;21.52;4.38;;;;;;;39.22;25.21;100133.53;5071823;28;20217;-57
2022/07/19 05:39:19;;;;;;;7.53;4.10;;;;;;;38.91;25.66;100131.53;5071612;28;20207;-56
2022/07/19 05:41:46;;;;;;;9.90;2.95;;;;;;;38.26;25.90;100127.00;5082590;28;20223;-56
2022/07/19 05:44:13;;;;;;;9.18;3.00;;;;;;;38.28;26.16;100122.19;5089605;28;20195;-59
2022/07/19 05:46:41;;;;;;;5.30;2.90;;;;;;;38.11;26.60;100125.34;5082791;28;20194;-59
2022/07/19 05:49:08;;;;;;;11.73;2.55;;;;;;;38.01;26.55;100121.34;5088542;28;20191;-59
2022/07/19 05:51:36;;;;;;;5.07;2.50;;;;;;;38.00;26.31;100131.34;5090698;28;20263;-59
2022/07/19 05:54:03;;;;;;;3.92;2.40;;;;;;;37.48;26.62;100123.06;5092095;28;20201;-59
2022/07/19 05:56:32;;;;;;;3.13;1.95;;;;;;;36.96;27.71;100125.31;5092033;28;20313;-58
2022/07/19 05:59:01;;;;;;;13.20;3.08;;;;;;;37.69;26.56;100133.81;5091950;28;20285;-59
2022/07/19 06:01:28;;;;;;;5.35;2.42;;;;;;;37.26;27.01;100131.31;5092267;28;20227;-59
2022/07/19 06:03:56;;;;;;;5.88;2.05;;;;;;;37.14;27.29;100123.94;5092102;28;20321;-59
2022/07/19 06:06:26;;;;;;;12.23;2.70;;;;;;;37.41;27.00;100123.88;5092135;28;20669;-59
2022/07/19 06:08:53;;;;;;;4.45;2.33;;;;;;;37.58;27.19;100127.06;5092111;28;20664;-59
2022/07/19 06:11:21;;;;;;;2.85;2.22;;;;;;;38.04;26.05;100131.75;5087205;28;20187;-56
2022/07/19 06:13:50;;;;;;;3.13;2.33;;;;;;;38.58;25.71;100125.34;5084723;28;20281;-56
2022/07/19 06:16:17;;;;;;;2.92;2.22;;;;;;;38.57;25.69;100123.66;5090126;28;20205;-56
2022/07/19 06:18:44;;;;;;;6.35;2.20;;;;;;;38.75;24.58;100138.22;5090217;28;20199;-56
2022/07/19 06:21:14;;;;;;;2.00;1.80;;;;;;;38.41;25.45;100133.03;5090005;28;20222;-57
2022/07/19 06:23:42;;;;;;;4.95;2.40;;;;;;;38.23;25.12;100132.84;5083501;28;20191;-55
2022/07/19 06:26:10;;;;;;;2.53;2.28;;;;;;;38.18;25.75;100130.75;5078889;28;20197;-56
2022/07/19 06:28:37;;;;;;;9.05;2.55;;;;;;;37.80;25.56;100116.94;5078768;28;20209;-55
2022/07/19 06:31:07;;;;;;;4.68;2.78;;;;;;;37.74;26.14;100125.88;5080396;28;20194;-54
2022/07/19 06:33:34;;;;;;;6.78;2.80;;;;;;;37.84;26.09;100126.31;5079547;28;20234;-56
2022/07/19 06:36:01;;;;;;;8.40;2.25;;;;;;;38.33;25.26;100130.53;5077883;28;20679;-55
2022/07/19 06:38:28;;;;;;;2.92;1.98;;;;;;;37.98;25.33;100127.16;5079851;28;20281;-55
2022/07/19 06:40:55;;;;;;;3.35;2.42;;;;;;;37.51;25.80;100131.63;5077455;28;20286;-56
2022/07/19 06:43:22;;;;;;;3.70;2.50;;;;;;;36.45;27.31;100121.25;5070279;28;20203;-55
2022/07/19 06:45:49;;;;;;;6.32;2.35;;;;;;;35.91;29.11;100119.91;5070381;28;20235;-55
2022/07/19 06:48:17;;;;;;;3.85;2.47;;;;;;;36.11;28.07;100119.28;5069975;28;20327;-55
2022/07/19 06:50:44;;;;;;;2.83;2.25;;;;;;;35.89;29.49;100113.84;5070158;28;20204;-55
2022/07/19 06:53:11;;;;;;;5.93;2.63;;;;;;;35.68;29.25;100103.00;5070090;28;20196;-55
2022/07/19 06:55:38;;;;;;;13.95;5.25;;;;;;;36.04;28.69;100113.78;5070238;28;20661;-55
2022/07/19 06:58:05;;;;;;;4.60;2.30;;;;;;;35.28;29.20;100107.97;5070193;28;20219;-54
2022/07/19 07:00:32;;;;;;;5.97;2.30;;;;;;;34.86;30.18;100102.44;5070092;28;20283;-55
2022/07/19 07:02:59;;;;;;;17.83;7.10;;;;;;;34.54;30.24;100098.19;5069840;28;20310;-55
2022/07/19 07:05:27;;;;;;;8.90;3.55;;;;;;;34.39;30.54;100098.19;5070163;28;20206;-56
2022/07/19 07:07:54;;;;;;;9.48;2.80;;;;;;;34.14;31.54;100089.44;5069848;28;20203;-55
2022/07/19 07:10:22;;;;;;;8.25;4.55;;;;;;;34.16;31.06;100089.28;5069754;28;20682;-55
2022/07/19 07:12:49;;;;;;;4.50;3.05;;;;;;;33.95;31.47;100098.03;5069815;28;20227;-55
2022/07/19 07:15:16;;;;;;;3.75;3.38;;;;;;;33.98;31.22;100086.03;5075202;28;20760;-55
2022/07/19 07:17:44;;;;;;;5.57;3.63;;;;;;;33.87;30.72;100087.31;5078608;28;20645;-54
2022/07/19 07:20:12;;;;;;;3.22;2.92;;;;;;;33.83;31.06;100089.56;5079890;28;20520;-55
2022/07/19 07:22:40;;;;;;;3.00;2.65;;;;;;;34.15;31.23;100088.44;5089878;28;20223;-54
2022/07/19 07:25:08;;;;;;;4.38;2.50;;;;;;;34.32;30.81;100086.44;5090033;28;20745;-55
2022/07/19 07:27:35;;;;;;;4.07;2.83;;;;;;;34.38;31.28;100088.41;5089956;28;20228;-55
2022/07/19 07:30:03;;;;;;;2.53;2.33;;;;;;;34.65;30.57;100088.81;5089825;28;20197;-56
2022/07/19 07:32:30;;;;;;;2.40;2.30;;;;;;;34.56;30.13;100088.88;5089931;28;20195;-55
2022/07/19 07:34:57;;;;;;;7.00;3.47;;;;;;;34.98;29.97;100084.75;5089939;28;20210;-54
2022/07/19 07:37:26;;;;;;;7.45;2.65;;;;;;;34.54;29.77;100080.16;5084334;28;20694;-55
2022/07/19 07:39:54;;;;;;;7.45;2.30;;;;;;;34.30;30.38;100083.13;5078301;28;20245;-55
2022/07/19 07:42:22;;;;;;;3.70;2.30;;;;;;;34.32;29.75;100081.06;5078672;28;20218;-55
2022/07/19 07:44:49;;;;;;;5.65;2.20;;;;;;;34.37;29.50;100080.50;5079954;28;20202;-55
2022/07/19 07:47:15;;;;;;;6.53;2.58;;;;;;;34.67;29.33;100084.91;5078336;28;20311;-55
2022/07/19 07:49:42;;;;;;;5.30;2.20;;;;;;;35.17;28.09;100088.72;5078379;28;20561;-55
2022/07/19 07:52:09;;;;;;;5.30;2.20;;;;;;;35.93;27.82;100085.44;5086249;28;20195;-55
2022/07/19 07:54:37;;;;;;;3.47;2.10;;;;;;;36.43;27.04;100091.69;5089630;28;20204;-54
2022/07/19 07:57:05;;;;;;;8.50;2.40;;;;;;;36.97;26.81;100085.56;5089447;28;20203;-54
2022/07/19 07:59:32;;;;;;;8.63;2.47;;;;;;;36.13;27.65;100082.88;5089601;28;20202;-54
2022/07/19 08:01:59;;;;;;;5.32;2.30;;;;;;;36.41;27.05;100077.53;5089762;28;20314;-55
2022/07/19 08:04:26;;;;;;;4.95;2.20;;;;;;;36.97;26.38;100072.03;5089701;28;20191;-56
2022/07/19 08:06:53;;;;;;;7.70;3.58;;;;;;;38.01;25.09;100075.25;5089396;28;20199;-54
2022/07/19 08:09:20;;;;;;;3.83;2.10;;;;;;;38.83;24.87;100075.56;5089584;28;20194;-54
2022/07/19 08:11:46;;;;;;;8.57;2.40;;;;;;;39.05;23.01;100088.91;5089321;28;20201;-54
2022/07/19 08:14:15;;;;;;;1.92;1.65;;;;;;;38.87;22.01;100076.00;5090301;28;20584;-58
2022/07/19 08:16:42;;;;;;;8.23;2.40;;;;;;;39.16;22.27;100074.66;5090336;28;20640;-59
2022/07/19 08:19:09;;;;;;;4.13;1.80;;;;;;;39.24;20.79;100077.13;5090147;28;20201;-59
2022/07/19 08:21:36;;;;;;;2.25;1.50;;;;;;;39.04;20.11;100082.66;5091672;28;20237;-59
2022/07/19 08:24:03;;;;;;;3.42;1.88;;;;;;;39.13;19.62;100077.81;5093373;28;20219;-59
2022/07/19 08:26:31;;;;;;;1.88;1.77;;;;;;;39.12;20.27;100067.97;5094002;28;20214;-59
2022/07/19 08:28:58;;;;;;;2.08;1.55;;;;;;;38.75;19.79;100073.09;5093607;28;20223;-59
2022/07/19 08:31:26;;;;;;;3.25;1.40;;;;;;;37.70;19.91;100062.31;5093414;28;20609;-59
2022/07/19 08:33:53;;;;;;;1.65;1.42;;;;;;;37.87;19.74;100069.00;5093796;28;20223;-60
2022/07/19 08:36:20;;;;;;;1.70;1.60;;;;;;;37.96;20.06;100064.19;5093526;28;20653;-59
2022/07/19 08:38:47;;;;;;;1.50;1.40;;;;;;;37.83;19.90;100066.88;5092913;28;20227;-60
2022/07/19 08:41:16;;;;;;;2.90;1.50;;;;;;;37.32;20.73;100064.69;5092925;28;20219;-60
2022/07/19 08:43:43;;;;;;;5.93;1.95;;;;;;;36.69;22.35;100053.16;5092611;28;20230;-60
2022/07/19 08:46:10;;;;;;;2.40;2.20;;;;;;;35.97;21.78;100054.28;5091804;28;20302;-59
2022/07/19 08:48:39;;;;;;;3.47;1.65;;;;;;;35.64;24.81;100050.44;5092434;28;20375;-59
2022/07/19 08:51:06;;;;;;;7.68;1.70;;;;;;;35.49;24.03;100034.28;5100117;28;20218;-59
2022/07/19 08:53:37;;;;;;;2.45;1.67;;;;;;;34.58;23.53;100041.00;5112844;28;20313;-59
2022/07/19 08:57:56;;;;;;;5.00;2.30;;;;;;;34.37;23.68;100027.44;5112697;28;20314;-60
2022/07/19 08:58:51;;;;;;;3.58;2.33;;;;;;;33.80;24.24;100019.88;5110977;28;20775;-60
2022/07/19 09:01:18;;;;;;;4.28;1.77;;;;;;;33.23;25.23;100032.03;5092032;28;20281;-58
2022/07/19 09:04:11;;;;;;;4.93;1.63;;;;;;;33.22;25.29;100027.66;5091134;28;20215;-59
2022/07/19 09:06:40;;;;;;;1.88;1.77;;;;;;;33.18;25.99;100022.63;5092609;28;20199;-58
2022/07/19 09:09:08;;;;;;;3.60;1.70;;;;;;;33.48;24.38;100025.50;5087542;28;20199;-58
2022/07/19 09:11:37;;;;;;;6.55;1.85;;;;;;;33.51;25.67;100026.00;5087897;28;20683;-59
2022/07/19 09:14:10;;;;;;;2.92;1.83;;;;;;;33.46;25.04;100016.75;5091806;28;20223;-59
2022/07/19 09:16:51;;;;;;;3.55;1.83;;;;;;;33.87;25.82;100019.97;5092245;28;20219;-58
2022/07/19 09:19:20;;;;;;;7.93;2.00;;;;;;;33.82;25.46;100017.84;5089153;27;20223;-59
2022/07/19 09:21:59;;;;;;;3.35;2.08;;;;;;;34.32;24.91;100012.81;5092239;28;20202;-59
2022/07/19 09:24:26;;;;;;;3.30;1.50;;;;;;;34.48;25.42;100018.91;5092188;28;20664;-59
2022/07/19 09:26:58;;;;;;;3.70;1.67;;;;;;;34.38;23.93;100012.09;5087557;28;20203;-56
2022/07/19 09:29:25;;;;;;;4.45;2.10;;;;;;;34.51;24.13;100002.34;5077046;28;20202;-55
2022/07/19 09:31:59;;;;;;;5.43;1.90;;;;;;;34.38;24.84;100010.25;5074138;28;20199;-56
2022/07/19 09:34:32;;;;;;;1.65;1.60;;;;;;;34.13;23.96;100001.56;5076859;28;20191;-56
2022/07/19 09:37:10;;;;;;;2.53;1.83;;;;;;;33.31;25.25;100002.38;5074166;28;20199;-55
2022/07/19 09:39:39;;;;;;;2.85;1.60;;;;;;;33.23;25.79;99997.91;5082508;28;20192;-56
2022/07/19 09:42:06;;;;;;;3.60;1.80;;;;;;;33.72;24.36;100001.09;5076601;28;20212;-54
2022/07/19 09:44:33;;;;;;;3.28;1.80;;;;;;;33.97;26.27;99995.50;5071656;28;20282;-55
2022/07/19 09:47:00;;;;;;;5.78;1.67;;;;;;;34.24;24.62;100000.25;5071333;28;20227;-55
2022/07/19 09:49:27;;;;;;;7.30;2.47;;;;;;;34.15;24.83;100007.59;5071431;28;20206;-55
2022/07/19 09:51:55;;;;;;;2.20;1.95;;;;;;;33.97;24.65;100003.59;5071243;28;20192;-55
2022/07/19 09:54:24;;;;;;;2.85;2.30;;;;;;;34.01;24.75;99999.50;5071223;28;20212;-54
2022/07/19 09:56:53;;;;;;;2.58;2.30;;;;;;;34.13;24.73;100000.72;5071277;28;20203;-55
2022/07/19 09:59:21;;;;;;;3.45;2.55;;;;;;;33.83;25.38;99991.75;5078982;28;20283;-56
2022/07/19 10:01:50;;;;;;;3.15;1.90;;;;;;;33.70;25.31;99994.19;5081053;28;20199;-56
2022/07/19 10:04:18;;;;;;;2.55;1.98;;;;;;;33.41;25.10;99993.06;5081032;28;20192;-59
2022/07/19 10:06:46;;;;;;;12.68;2.10;;;;;;;32.97;25.92;100000.03;5080399;28;20203;-59
2022/07/19 10:09:17;;;;;;;2.30;1.83;;;;;;;32.27;26.17;99990.06;5080493;28;20191;-59
2022/07/19 10:11:44;;;;;;;3.22;1.73;;;;;;;31.67;26.86;99995.81;5079735;28;20202;-59
2022/07/19 10:14:12;;;;;;;3.67;2.17;;;;;;;31.52;27.69;99992.09;5079839;28;20188;-58
2022/07/19 10:17:02;;;;;;;4.32;1.88;;;;;;;31.64;27.52;99988.09;5082620;28;20595;-59
2022/07/19 10:19:37;;;;;;;2.75;2.05;;;;;;;31.90;27.35;99982.56;5080361;28;20312;-56
2022/07/19 10:22:06;;;;;;;5.18;2.00;;;;;;;31.93;27.46;99976.00;5070792;28;20199;-56
2022/07/19 10:24:46;;;;;;;2.42;2.00;;;;;;;31.98;27.05;99971.78;5070722;28;20279;-57
2022/07/19 10:27:13;;;;;;;1.85;1.75;;;;;;;32.05;26.95;99966.59;5070549;28;20202;-55
2022/07/19 10:29:40;;;;;;;2.47;1.80;;;;;;;32.23;26.90;99964.56;5070798;28;20200;-56
2022/07/19 10:32:09;;;;;;;1.90;1.80;;;;;;;32.09;27.06;99952.63;5071009;28;20198;-59
2022/07/19 10:34:36;;;;;;;2.15;2.05;;;;;;;31.84;27.86;99959.06;5071255;28;20665;-59
2022/07/19 10:37:04;;;;;;;1.95;1.83;;;;;;;31.79;27.45;99949.84;5073282;28;20202;-59
2022/07/19 10:39:33;;;;;;;2.00;1.90;;;;;;;31.69;27.36;99950.03;5081352;28;20192;-59
2022/07/19 10:42:25;;;;;;;2.10;2.00;;;;;;;31.56;28.02;99947.81;5078986;28;20199;-59
2022/07/19 10:45:14;;;;;;;1.98;1.88;;;;;;;31.10;28.09;99954.66;5079151;28;20647;-59
2022/07/19 10:48:10;;;;;;;2.72;2.17;;;;;;;30.91;28.35;99955.78;5080711;28;20222;-58
2022/07/19 10:50:55;;;;;;;3.17;2.00;;;;;;;30.79;28.63;99950.88;5079284;28;20196;-60
2022/07/19 10:54:05;;;;;;;1.88;1.77;;;;;;;30.66;29.10;99945.97;5078950;28;20196;-59
2022/07/19 10:56:58;;;;;;;2.00;1.80;;;;;;;30.60;28.62;99943.94;5043409;28;20195;-59
2022/07/19 10:59:41;;;;;;;1.92;1.83;;;;;;;30.50;28.86;99938.69;5080550;28;20204;-59
2022/07/19 11:02:22;;;;;;;2.70;2.03;;;;;;;30.43;29.11;99928.78;5087399;28;20588;-58
2022/07/19 11:04:50;;;;;;;2.47;2.15;;;;;;;30.46;29.43;99926.63;5090625;28;20206;-59
2022/07/19 11:07:20;;;;;;;3.28;1.83;;;;;;;30.58;29.21;99925.38;5090722;28;20197;-58
2022/07/19 11:09:51;;;;;;;2.70;1.70;;;;;;;30.61;28.67;99921.50;5090565;28;20205;-59
2022/07/19 11:12:26;;;;;;;1.90;1.80;;;;;;;30.56;29.33;99915.81;5090557;28;20197;-58
2022/07/19 11:14:55;;;;;;;4.07;1.70;;;;;;;30.52;28.59;99917.94;5090350;28;20277;-59
2022/07/19 11:17:22;;;;;;;2.75;1.98;;;;;;;30.53;28.66;99908.91;5081121;28;20195;-55
2022/07/19 11:20:16;;;;;;;2.00;1.90;;;;;;;30.54;28.53;99920.47;5089766;28;20293;-56
2022/07/19 11:22:47;;;;;;;4.43;2.05;;;;;;;30.46;28.97;99910.56;5080445;28;20715;-56
2022/07/19 11:25:16;;;;;;;1.80;1.70;;;;;;;30.60;29.43;99899.22;5090025;28;20677;-55
2022/07/19 11:27:44;;;;;;;2.03;1.70;;;;;;;30.70;29.31;99899.06;5089791;28;20202;-56
2022/07/19 11:30:14;;;;;;;3.85;2.20;;;;;;;30.72;29.02;99890.88;5090015;28;20288;-54
2022/07/19 11:32:43;;;;;;;4.70;2.03;;;;;;;30.88;29.30;99897.13;5090160;28;20195;-55